sensor_id;sensor_type;location;lat;lon;timestamp;temperature;humidity
60353;DHT22;46196;52.970;6.954;2023-08-12T00:01:14;20.10;99.90
60353;DHT22;46196;52.970;6.954;2023-08-12T00:03:39;20.50;99.90
60353;DHT22;46196;52.970;6.954;2023-08-12T00:06:05;20.00;99.90
60353;DHT22;46196;52.970;6.954;2023-08-12T00:10:57;19.60;99.90
60353;DHT22;46196;52.970;6.954;2023-08-12T00:13:23;20.10;99.90
60353;DHT22;46196;52.970;6.954;2023-08-12T00:15:49;19.30;99.90
60353;DHT22;46196;52.970;6.954;2023-08-12T00:18:14;20.10;99.90
60353;DHT22;46196;52.970;6.954;2023-08-12T00:20:41;19.60;99.90
60353;DHT22;46196;52.970;6.954;2023-08-12T00:23:08;19.90;99.90
60353;DHT22;46196;52.970;6.954;2023-08-12T00:25:33;20.00;99.90
60353;DHT22;46196;52.970;6.954;2023-08-12T00:28:00;20.10;99.90
60353;DHT22;46196;52.970;6.954;2023-08-12T00:30:26;19.90;99.90
60353;DHT22;46196;52.970;6.954;2023-08-12T00:32:52;20.00;99.90
60353;DHT22;46196;52.970;6.954;2023-08-12T00:35:17;21.30;99.90
60353;DHT22;46196;52.970;6.954;2023-08-12T00:37:43;19.90;99.90
60353;DHT22;46196;52.970;6.954;2023-08-12T00:40:09;20.90;99.90
60353;DHT22;46196;52.970;6.954;2023-08-12T00:42:35;19.80;99.90
60353;DHT22;46196;52.970;6.954;2023-08-12T00:45:01;19.90;99.90
60353;DHT22;46196;52.970;6.954;2023-08-12T00:47:28;20.70;99.90
60353;DHT22;46196;52.970;6.954;2023-08-12T00:49:55;19.60;99.90
60353;DHT22;46196;52.970;6.954;2023-08-12T00:52:22;19.80;99.90
60353;DHT22;46196;52.970;6.954;2023-08-12T00:54:48;20.60;99.90
60353;DHT22;46196;52.970;6.954;2023-08-12T00:57:14;19.60;99.90
60353;DHT22;46196;52.970;6.954;2023-08-12T00:59:41;23.30;99.90
60353;DHT22;46196;52.970;6.954;2023-08-12T01:02:09;20.00;99.90
60353;DHT22;46196;52.970;6.954;2023-08-12T01:04:36;19.50;99.90
60353;DHT22;46196;52.970;6.954;2023-08-12T01:07:01;19.50;99.90
60353;DHT22;46196;52.970;6.954;2023-08-12T01:09:29;19.30;99.90
60353;DHT22;46196;52.970;6.954;2023-08-12T01:12:05;20.40;99.90
60353;DHT22;46196;52.970;6.954;2023-08-12T01:14:45;19.50;99.90
60353;DHT22;46196;52.970;6.954;2023-08-12T01:17:12;19.40;99.90
60353;DHT22;46196;52.970;6.954;2023-08-12T01:19:40;19.60;99.90
60353;DHT22;46196;52.970;6.954;2023-08-12T01:22:09;18.90;99.90
60353;DHT22;46196;52.970;6.954;2023-08-12T01:24:37;19.60;99.90
60353;DHT22;46196;52.970;6.954;2023-08-12T01:27:05;19.50;99.90
60353;DHT22;46196;52.970;6.954;2023-08-12T01:29:32;19.90;99.90
60353;DHT22;46196;52.970;6.954;2023-08-12T01:32:19;20.60;99.90
60353;DHT22;46196;52.970;6.954;2023-08-12T01:35:03;19.40;99.90
60353;DHT22;46196;52.970;6.954;2023-08-12T01:37:32;19.80;99.90
60353;DHT22;46196;52.970;6.954;2023-08-12T01:40:01;19.50;99.90
60353;DHT22;46196;52.970;6.954;2023-08-12T01:42:32;18.90;99.90
60353;DHT22;46196;52.970;6.954;2023-08-12T01:44:59;19.70;99.90
60353;DHT22;46196;52.970;6.954;2023-08-12T01:47:27;19.60;99.90
60353;DHT22;46196;52.970;6.954;2023-08-12T01:49:53;19.60;99.90
60353;DHT22;46196;52.970;6.954;2023-08-12T01:52:18;19.80;99.90
60353;DHT22;46196;52.970;6.954;2023-08-12T01:57:10;19.40;99.90
60353;DHT22;46196;52.970;6.954;2023-08-12T01:59:37;19.40;99.90
60353;DHT22;46196;52.970;6.954;2023-08-12T02:02:03;19.40;99.90
60353;DHT22;46196;52.970;6.954;2023-08-12T02:04:29;19.30;99.90
60353;DHT22;46196;52.970;6.954;2023-08-12T02:06:55;19.30;99.90
60353;DHT22;46196;52.970;6.954;2023-08-12T02:09:21;19.40;99.90
60353;DHT22;46196;52.970;6.954;2023-08-12T02:11:48;19.30;99.90
60353;DHT22;46196;52.970;6.954;2023-08-12T02:14:14;19.10;99.90
60353;DHT22;46196;52.970;6.954;2023-08-12T02:16:40;18.90;99.90
60353;DHT22;46196;52.970;6.954;2023-08-12T02:19:05;19.50;99.90
60353;DHT22;46196;52.970;6.954;2023-08-12T02:21:31;19.20;99.90
60353;DHT22;46196;52.970;6.954;2023-08-12T02:23:57;19.40;99.90
60353;DHT22;46196;52.970;6.954;2023-08-12T02:28:48;19.10;99.90
60353;DHT22;46196;52.970;6.954;2023-08-12T02:31:15;19.50;99.90
60353;DHT22;46196;52.970;6.954;2023-08-12T02:33:41;19.10;99.90
60353;DHT22;46196;52.970;6.954;2023-08-12T02:36:07;19.10;99.90
60353;DHT22;46196;52.970;6.954;2023-08-12T02:38:33;19.10;99.90
60353;DHT22;46196;52.970;6.954;2023-08-12T02:40:59;19.50;99.90
60353;DHT22;46196;52.970;6.954;2023-08-12T02:43:25;19.30;99.90
60353;DHT22;46196;52.970;6.954;2023-08-12T02:45:51;18.70;99.90
60353;DHT22;46196;52.970;6.954;2023-08-12T02:48:17;19.10;99.90
60353;DHT22;46196;52.970;6.954;2023-08-12T02:50:43;18.10;99.90
60353;DHT22;46196;52.970;6.954;2023-08-12T02:53:09;19.10;99.90
60353;DHT22;46196;52.970;6.954;2023-08-12T02:55:35;19.90;99.90
60353;DHT22;46196;52.970;6.954;2023-08-12T02:58:01;19.40;99.90
60353;DHT22;46196;52.970;6.954;2023-08-12T03:00:27;19.10;99.90
60353;DHT22;46196;52.970;6.954;2023-08-12T03:02:53;20.00;99.90
60353;DHT22;46196;52.970;6.954;2023-08-12T03:05:19;19.20;99.90
60353;DHT22;46196;52.970;6.954;2023-08-12T03:07:45;19.20;99.90
60353;DHT22;46196;52.970;6.954;2023-08-12T03:10:11;19.10;99.90
60353;DHT22;46196;52.970;6.954;2023-08-12T03:12:37;19.00;99.90
60353;DHT22;46196;52.970;6.954;2023-08-12T03:15:03;18.80;99.90
60353;DHT22;46196;52.970;6.954;2023-08-12T03:17:30;18.20;99.90
60353;DHT22;46196;52.970;6.954;2023-08-12T03:19:57;19.40;99.90
60353;DHT22;46196;52.970;6.954;2023-08-12T03:22:25;19.10;99.90
60353;DHT22;46196;52.970;6.954;2023-08-12T03:24:50;19.00;99.90
60353;DHT22;46196;52.970;6.954;2023-08-12T03:27:16;19.10;99.90
60353;DHT22;46196;52.970;6.954;2023-08-12T03:29:45;19.20;99.90
60353;DHT22;46196;52.970;6.954;2023-08-12T03:32:10;18.30;99.90
60353;DHT22;46196;52.970;6.954;2023-08-12T03:34:36;19.20;99.90
60353;DHT22;46196;52.970;6.954;2023-08-12T03:37:02;19.20;99.90
60353;DHT22;46196;52.970;6.954;2023-08-12T03:41:55;20.90;99.90
60353;DHT22;46196;52.970;6.954;2023-08-12T03:44:20;19.60;99.90
60353;DHT22;46196;52.970;6.954;2023-08-12T03:46:46;19.30;99.90
60353;DHT22;46196;52.970;6.954;2023-08-12T03:49:12;19.10;99.90
60353;DHT22;46196;52.970;6.954;2023-08-12T03:54:04;19.20;99.90
60353;DHT22;46196;52.970;6.954;2023-08-12T03:56:30;19.50;99.90
60353;DHT22;46196;52.970;6.954;2023-08-12T03:58:55;19.70;99.90
60353;DHT22;46196;52.970;6.954;2023-08-12T04:01:21;19.40;99.90
60353;DHT22;46196;52.970;6.954;2023-08-12T04:03:47;19.40;99.90
60353;DHT22;46196;52.970;6.954;2023-08-12T04:06:13;19.20;99.90
60353;DHT22;46196;52.970;6.954;2023-08-12T04:08:38;19.30;99.90
60353;DHT22;46196;52.970;6.954;2023-08-12T04:11:04;19.30;99.90
60353;DHT22;46196;52.970;6.954;2023-08-12T04:13:30;18.30;99.90
60353;DHT22;46196;52.970;6.954;2023-08-12T04:15:56;19.50;99.90
60353;DHT22;46196;52.970;6.954;2023-08-12T04:18:22;19.80;99.90
60353;DHT22;46196;52.970;6.954;2023-08-12T04:20:49;19.30;99.90
60353;DHT22;46196;52.970;6.954;2023-08-12T04:25:44;18.40;99.90
60353;DHT22;46196;52.970;6.954;2023-08-12T04:28:11;19.60;99.90
60353;DHT22;46196;52.970;6.954;2023-08-12T04:30:44;19.50;99.90
60353;DHT22;46196;52.970;6.954;2023-08-12T04:33:10;19.20;99.90
60353;DHT22;46196;52.970;6.954;2023-08-12T04:35:36;19.30;99.90
60353;DHT22;46196;52.970;6.954;2023-08-12T04:38:01;19.50;99.90
60353;DHT22;46196;52.970;6.954;2023-08-12T04:40:27;19.30;99.90
60353;DHT22;46196;52.970;6.954;2023-08-12T04:42:53;20.10;99.90
60353;DHT22;46196;52.970;6.954;2023-08-12T04:45:19;20.10;99.90
60353;DHT22;46196;52.970;6.954;2023-08-12T04:47:45;19.90;99.90
60353;DHT22;46196;52.970;6.954;2023-08-12T04:50:11;19.30;99.90
60353;DHT22;46196;52.970;6.954;2023-08-12T04:52:36;19.40;99.90
60353;DHT22;46196;52.970;6.954;2023-08-12T04:55:02;19.30;99.90
60353;DHT22;46196;52.970;6.954;2023-08-12T04:57:29;20.10;99.90
60353;DHT22;46196;52.970;6.954;2023-08-12T04:59:54;19.60;99.90
60353;DHT22;46196;52.970;6.954;2023-08-12T05:02:21;19.30;99.90
60353;DHT22;46196;52.970;6.954;2023-08-12T05:04:49;19.00;99.90
60353;DHT22;46196;52.970;6.954;2023-08-12T05:09:41;19.40;99.90
60353;DHT22;46196;52.970;6.954;2023-08-12T05:12:10;18.20;99.90
60353;DHT22;46196;52.970;6.954;2023-08-12T05:14:37;19.60;99.90
60353;DHT22;46196;52.970;6.954;2023-08-12T05:17:03;19.50;99.90
60353;DHT22;46196;52.970;6.954;2023-08-12T05:19:28;19.40;99.90
60353;DHT22;46196;52.970;6.954;2023-08-12T05:21:54;19.50;99.90
60353;DHT22;46196;52.970;6.954;2023-08-12T05:24:20;20.50;99.90
60353;DHT22;46196;52.970;6.954;2023-08-12T05:29:11;19.60;99.90
60353;DHT22;46196;52.970;6.954;2023-08-12T05:31:37;19.20;99.90
60353;DHT22;46196;52.970;6.954;2023-08-12T05:36:29;19.70;99.90
60353;DHT22;46196;52.970;6.954;2023-08-12T05:38:55;19.70;99.90
60353;DHT22;46196;52.970;6.954;2023-08-12T05:41:20;19.60;99.90
60353;DHT22;46196;52.970;6.954;2023-08-12T05:43:48;19.80;99.90
60353;DHT22;46196;52.970;6.954;2023-08-12T05:46:14;20.30;99.90
60353;DHT22;46196;52.970;6.954;2023-08-12T05:48:39;19.80;99.90
60353;DHT22;46196;52.970;6.954;2023-08-12T05:51:05;20.20;99.90
60353;DHT22;46196;52.970;6.954;2023-08-12T05:53:31;19.90;99.90
60353;DHT22;46196;52.970;6.954;2023-08-12T05:55:58;21.10;99.90
60353;DHT22;46196;52.970;6.954;2023-08-12T05:58:24;20.00;99.90
60353;DHT22;46196;52.970;6.954;2023-08-12T06:00:50;20.10;99.90
60353;DHT22;46196;52.970;6.954;2023-08-12T06:03:16;21.00;99.90
60353;DHT22;46196;52.970;6.954;2023-08-12T06:05:45;20.00;99.90
60353;DHT22;46196;52.970;6.954;2023-08-12T06:08:12;20.40;99.90
60353;DHT22;46196;52.970;6.954;2023-08-12T06:10:37;19.90;99.90
60353;DHT22;46196;52.970;6.954;2023-08-12T06:13:03;20.60;99.90
60353;DHT22;46196;52.970;6.954;2023-08-12T06:15:30;20.90;99.90
60353;DHT22;46196;52.970;6.954;2023-08-12T06:17:56;21.50;99.90
60353;DHT22;46196;52.970;6.954;2023-08-12T06:20:23;21.40;99.90
60353;DHT22;46196;52.970;6.954;2023-08-12T06:22:49;20.70;99.90
60353;DHT22;46196;52.970;6.954;2023-08-12T06:25:15;21.10;99.90
60353;DHT22;46196;52.970;6.954;2023-08-12T06:27:41;21.70;99.90
60353;DHT22;46196;52.970;6.954;2023-08-12T06:30:07;21.20;99.90
60353;DHT22;46196;52.970;6.954;2023-08-12T06:32:34;21.50;99.90
60353;DHT22;46196;52.970;6.954;2023-08-12T06:35:00;20.80;99.90
60353;DHT22;46196;52.970;6.954;2023-08-12T06:37:26;21.20;99.90
60353;DHT22;46196;52.970;6.954;2023-08-12T06:39:51;22.60;99.90
60353;DHT22;46196;52.970;6.954;2023-08-12T06:42:17;22.50;99.90
60353;DHT22;46196;52.970;6.954;2023-08-12T06:44:43;21.40;99.90
60353;DHT22;46196;52.970;6.954;2023-08-12T06:47:08;21.40;99.90
60353;DHT22;46196;52.970;6.954;2023-08-12T06:49:34;21.30;99.90
60353;DHT22;46196;52.970;6.954;2023-08-12T06:52:00;20.20;99.90
60353;DHT22;46196;52.970;6.954;2023-08-12T06:54:26;21.40;99.90
60353;DHT22;46196;52.970;6.954;2023-08-12T06:56:51;21.50;99.90
60353;DHT22;46196;52.970;6.954;2023-08-12T06:59:17;21.30;99.90
60353;DHT22;46196;52.970;6.954;2023-08-12T07:01:43;21.60;99.90
60353;DHT22;46196;52.970;6.954;2023-08-12T07:04:09;21.40;99.90
60353;DHT22;46196;52.970;6.954;2023-08-12T07:06:34;21.40;99.90
60353;DHT22;46196;52.970;6.954;2023-08-12T07:09:00;21.50;99.90
60353;DHT22;46196;52.970;6.954;2023-08-12T07:11:26;21.20;99.90
60353;DHT22;46196;52.970;6.954;2023-08-12T07:16:17;21.60;99.90
60353;DHT22;46196;52.970;6.954;2023-08-12T07:18:43;23.20;99.90
60353;DHT22;46196;52.970;6.954;2023-08-12T07:21:09;21.40;99.90
60353;DHT22;46196;52.970;6.954;2023-08-12T07:23:35;21.40;99.90
60353;DHT22;46196;52.970;6.954;2023-08-12T07:26:00;21.40;99.90
60353;DHT22;46196;52.970;6.954;2023-08-12T07:28:26;21.40;99.90
60353;DHT22;46196;52.970;6.954;2023-08-12T07:30:52;21.30;99.90
60353;DHT22;46196;52.970;6.954;2023-08-12T07:33:19;22.00;99.90
60353;DHT22;46196;52.970;6.954;2023-08-12T07:35:44;21.10;99.90
60353;DHT22;46196;52.970;6.954;2023-08-12T07:38:10;21.50;99.90
60353;DHT22;46196;52.970;6.954;2023-08-12T07:40:36;21.50;99.90
60353;DHT22;46196;52.970;6.954;2023-08-12T07:43:02;20.90;99.90
60353;DHT22;46196;52.970;6.954;2023-08-12T07:45:27;20.80;99.90
60353;DHT22;46196;52.970;6.954;2023-08-12T07:47:53;21.30;99.90
60353;DHT22;46196;52.970;6.954;2023-08-12T07:50:19;21.40;99.90
60353;DHT22;46196;52.970;6.954;2023-08-12T07:52:45;21.70;99.90
60353;DHT22;46196;52.970;6.954;2023-08-12T07:55:11;21.10;99.90
60353;DHT22;46196;52.970;6.954;2023-08-12T07:57:37;22.60;99.90
60353;DHT22;46196;52.970;6.954;2023-08-12T08:00:03;21.50;99.90
60353;DHT22;46196;52.970;6.954;2023-08-12T08:02:30;21.30;99.90
60353;DHT22;46196;52.970;6.954;2023-08-12T08:04:56;21.10;99.90
60353;DHT22;46196;52.970;6.954;2023-08-12T08:07:22;21.00;99.90
60353;DHT22;46196;52.970;6.954;2023-08-12T08:09:47;21.30;99.90
60353;DHT22;46196;52.970;6.954;2023-08-12T08:12:13;21.00;99.90
60353;DHT22;46196;52.970;6.954;2023-08-12T08:14:39;21.10;99.90
60353;DHT22;46196;52.970;6.954;2023-08-12T08:17:05;21.20;99.90
60353;DHT22;46196;52.970;6.954;2023-08-12T08:19:30;21.00;99.90
60353;DHT22;46196;52.970;6.954;2023-08-12T08:21:57;19.90;99.90
60353;DHT22;46196;52.970;6.954;2023-08-12T08:24:23;21.10;99.90
60353;DHT22;46196;52.970;6.954;2023-08-12T08:26:48;20.80;99.90
60353;DHT22;46196;52.970;6.954;2023-08-12T08:29:14;20.90;99.90
60353;DHT22;46196;52.970;6.954;2023-08-12T08:31:40;20.60;99.90
60353;DHT22;46196;52.970;6.954;2023-08-12T08:34:06;20.70;99.90
60353;DHT22;46196;52.970;6.954;2023-08-12T08:36:32;21.10;99.90
60353;DHT22;46196;52.970;6.954;2023-08-12T08:38:58;21.10;99.90
60353;DHT22;46196;52.970;6.954;2023-08-12T08:41:24;20.50;99.90
60353;DHT22;46196;52.970;6.954;2023-08-12T08:43:52;20.60;99.90
60353;DHT22;46196;52.970;6.954;2023-08-12T08:46:20;22.30;99.90
60353;DHT22;46196;52.970;6.954;2023-08-12T08:48:47;21.00;99.90
60353;DHT22;46196;52.970;6.954;2023-08-12T08:51:14;20.60;99.90
60353;DHT22;46196;52.970;6.954;2023-08-12T08:53:40;19.10;99.90
60353;DHT22;46196;52.970;6.954;2023-08-12T08:56:07;20.70;99.90
60353;DHT22;46196;52.970;6.954;2023-08-12T08:58:34;20.60;99.90
60353;DHT22;46196;52.970;6.954;2023-08-12T09:01:00;20.20;99.90
60353;DHT22;46196;52.970;6.954;2023-08-12T09:03:27;20.30;99.90
60353;DHT22;46196;52.970;6.954;2023-08-12T09:05:55;20.60;99.90
60353;DHT22;46196;52.970;6.954;2023-08-12T09:08:22;20.90;99.90
60353;DHT22;46196;52.970;6.954;2023-08-12T09:10:49;21.40;99.90
60353;DHT22;46196;52.970;6.954;2023-08-12T09:13:15;19.70;99.90
60353;DHT22;46196;52.970;6.954;2023-08-12T09:15:43;22.20;99.90
60353;DHT22;46196;52.970;6.954;2023-08-12T09:18:09;19.50;99.90
60353;DHT22;46196;52.970;6.954;2023-08-12T09:20:35;20.40;99.90
60353;DHT22;46196;52.970;6.954;2023-08-12T09:23:02;20.40;99.90
60353;DHT22;46196;52.970;6.954;2023-08-12T09:25:29;20.30;99.90
60353;DHT22;46196;52.970;6.954;2023-08-12T09:27:55;20.20;99.90
60353;DHT22;46196;52.970;6.954;2023-08-12T09:33:02;20.00;99.90
60353;DHT22;46196;52.970;6.954;2023-08-12T09:35:33;19.90;99.90
60353;DHT22;46196;52.970;6.954;2023-08-12T09:38:02;20.00;99.90
60353;DHT22;46196;52.970;6.954;2023-08-12T09:40:28;19.90;99.90
60353;DHT22;46196;52.970;6.954;2023-08-12T09:42:55;19.90;99.90
60353;DHT22;46196;52.970;6.954;2023-08-12T09:45:24;19.70;99.90
60353;DHT22;46196;52.970;6.954;2023-08-12T09:47:50;19.80;99.90
60353;DHT22;46196;52.970;6.954;2023-08-12T09:50:16;20.60;99.90
60353;DHT22;46196;52.970;6.954;2023-08-12T09:52:42;19.80;99.90
60353;DHT22;46196;52.970;6.954;2023-08-12T09:55:08;20.40;99.90
60353;DHT22;46196;52.970;6.954;2023-08-12T09:57:36;19.80;99.90
60353;DHT22;46196;52.970;6.954;2023-08-12T10:00:06;19.90;99.90
60353;DHT22;46196;52.970;6.954;2023-08-12T10:02:39;19.80;99.90
60353;DHT22;46196;52.970;6.954;2023-08-12T10:05:06;19.60;99.90
60353;DHT22;46196;52.970;6.954;2023-08-12T10:07:35;19.80;99.90
60353;DHT22;46196;52.970;6.954;2023-08-12T10:10:02;19.80;99.90
60353;DHT22;46196;52.970;6.954;2023-08-12T10:12:31;20.50;99.90
60353;DHT22;46196;52.970;6.954;2023-08-12T10:14:58;19.40;99.90
60353;DHT22;46196;52.970;6.954;2023-08-12T10:17:25;20.60;99.90
60353;DHT22;46196;52.970;6.954;2023-08-12T10:19:55;19.80;99.90
60353;DHT22;46196;52.970;6.954;2023-08-12T10:22:21;19.50;99.90
60353;DHT22;46196;52.970;6.954;2023-08-12T10:24:48;19.80;99.90
60353;DHT22;46196;52.970;6.954;2023-08-12T10:27:16;19.50;99.90
60353;DHT22;46196;52.970;6.954;2023-08-12T10:29:43;19.80;99.90
60353;DHT22;46196;52.970;6.954;2023-08-12T10:32:09;19.80;99.90
60353;DHT22;46196;52.970;6.954;2023-08-12T10:34:35;19.80;99.90
60353;DHT22;46196;52.970;6.954;2023-08-12T10:37:02;19.80;99.90
60353;DHT22;46196;52.970;6.954;2023-08-12T10:39:29;19.70;99.90
60353;DHT22;46196;52.970;6.954;2023-08-12T10:41:55;19.50;99.90
60353;DHT22;46196;52.970;6.954;2023-08-12T10:44:21;19.60;99.90
60353;DHT22;46196;52.970;6.954;2023-08-12T10:46:52;19.60;99.90
60353;DHT22;46196;52.970;6.954;2023-08-12T10:49:20;19.50;99.90
60353;DHT22;46196;52.970;6.954;2023-08-12T10:51:53;19.90;99.90
60353;DHT22;46196;52.970;6.954;2023-08-12T10:54:28;19.70;99.90
60353;DHT22;46196;52.970;6.954;2023-08-12T10:59:53;20.20;99.90
60353;DHT22;46196;52.970;6.954;2023-08-12T11:02:29;19.40;99.90
60353;DHT22;46196;52.970;6.954;2023-08-12T11:05:07;19.70;99.90
60353;DHT22;46196;52.970;6.954;2023-08-12T11:07:55;20.20;99.90
60353;DHT22;46196;52.970;6.954;2023-08-12T11:10:23;19.90;99.90
60353;DHT22;46196;52.970;6.954;2023-08-12T11:15:36;19.90;99.90
60353;DHT22;46196;52.970;6.954;2023-08-12T11:18:09;19.90;99.90
60353;DHT22;46196;52.970;6.954;2023-08-12T11:20:36;20.00;99.90
60353;DHT22;46196;52.970;6.954;2023-08-12T11:23:03;21.30;99.90
60353;DHT22;46196;52.970;6.954;2023-08-12T11:25:30;20.10;99.90
60353;DHT22;46196;52.970;6.954;2023-08-12T11:27:57;19.80;99.90
60353;DHT22;46196;52.970;6.954;2023-08-12T11:30:23;20.10;99.90
60353;DHT22;46196;52.970;6.954;2023-08-12T11:32:51;20.20;99.90
60353;DHT22;46196;52.970;6.954;2023-08-12T11:35:18;20.40;99.90
60353;DHT22;46196;52.970;6.954;2023-08-12T11:37:46;20.50;99.90
60353;DHT22;46196;52.970;6.954;2023-08-12T11:40:14;20.60;99.90
60353;DHT22;46196;52.970;6.954;2023-08-12T11:42:41;20.60;99.90
60353;DHT22;46196;52.970;6.954;2023-08-12T11:45:08;20.70;99.90
60353;DHT22;46196;52.970;6.954;2023-08-12T11:47:35;20.30;99.90
60353;DHT22;46196;52.970;6.954;2023-08-12T11:50:05;20.90;99.90
60353;DHT22;46196;52.970;6.954;2023-08-12T11:52:31;20.90;99.90
60353;DHT22;46196;52.970;6.954;2023-08-12T11:54:57;20.50;99.90
60353;DHT22;46196;52.970;6.954;2023-08-12T11:57:23;20.80;99.90
60353;DHT22;46196;52.970;6.954;2023-08-12T11:59:50;20.70;99.90
60353;DHT22;46196;52.970;6.954;2023-08-12T12:02:15;20.50;99.90
60353;DHT22;46196;52.970;6.954;2023-08-12T12:04:42;20.40;99.90
60353;DHT22;46196;52.970;6.954;2023-08-12T12:07:18;21.20;99.90
60353;DHT22;46196;52.970;6.954;2023-08-12T12:09:44;20.20;99.90
60353;DHT22;46196;52.970;6.954;2023-08-12T12:12:10;20.60;99.90
60353;DHT22;46196;52.970;6.954;2023-08-12T12:17:07;20.20;99.90
60353;DHT22;46196;52.970;6.954;2023-08-12T12:19:33;21.40;99.90
60353;DHT22;46196;52.970;6.954;2023-08-12T12:22:03;20.70;99.90
60353;DHT22;46196;52.970;6.954;2023-08-12T12:24:30;20.60;99.90
60353;DHT22;46196;52.970;6.954;2023-08-12T12:26:56;20.30;99.90
60353;DHT22;46196;52.970;6.954;2023-08-12T12:29:22;20.40;99.90
60353;DHT22;46196;52.970;6.954;2023-08-12T12:31:48;20.50;99.90
60353;DHT22;46196;52.970;6.954;2023-08-12T12:34:14;20.60;99.90
60353;DHT22;46196;52.970;6.954;2023-08-12T12:36:41;20.70;99.90
60353;DHT22;46196;52.970;6.954;2023-08-12T12:39:07;20.80;99.90
60353;DHT22;46196;52.970;6.954;2023-08-12T12:41:34;20.90;99.90
60353;DHT22;46196;52.970;6.954;2023-08-12T12:44:00;20.40;99.90
60353;DHT22;46196;52.970;6.954;2023-08-12T12:46:27;20.70;99.90
60353;DHT22;46196;52.970;6.954;2023-08-12T12:48:53;21.10;99.90
60353;DHT22;46196;52.970;6.954;2023-08-12T12:51:19;20.80;99.90
60353;DHT22;46196;52.970;6.954;2023-08-12T12:53:44;20.80;99.90
60353;DHT22;46196;52.970;6.954;2023-08-12T12:56:10;20.80;99.90
60353;DHT22;46196;52.970;6.954;2023-08-12T12:58:37;21.20;99.90
60353;DHT22;46196;52.970;6.954;2023-08-12T13:01:04;20.60;99.90
60353;DHT22;46196;52.970;6.954;2023-08-12T13:03:30;20.50;99.90
60353;DHT22;46196;52.970;6.954;2023-08-12T13:05:57;19.70;99.90
60353;DHT22;46196;52.970;6.954;2023-08-12T13:08:23;20.90;99.90
60353;DHT22;46196;52.970;6.954;2023-08-12T13:10:49;20.90;99.90
60353;DHT22;46196;52.970;6.954;2023-08-12T13:13:15;21.10;99.90
60353;DHT22;46196;52.970;6.954;2023-08-12T13:15:45;21.20;99.90
60353;DHT22;46196;52.970;6.954;2023-08-12T13:18:11;21.50;99.90
60353;DHT22;46196;52.970;6.954;2023-08-12T13:20:37;21.60;99.90
60353;DHT22;46196;52.970;6.954;2023-08-12T13:23:04;22.00;99.90
60353;DHT22;46196;52.970;6.954;2023-08-12T13:25:31;21.70;99.90
60353;DHT22;46196;52.970;6.954;2023-08-12T13:27:58;21.70;99.90
60353;DHT22;46196;52.970;6.954;2023-08-12T13:30:24;22.30;99.90
60353;DHT22;46196;52.970;6.954;2023-08-12T13:32:50;21.60;99.90
60353;DHT22;46196;52.970;6.954;2023-08-12T13:35:17;22.30;99.90
60353;DHT22;46196;52.970;6.954;2023-08-12T13:37:43;22.20;99.90
60353;DHT22;46196;52.970;6.954;2023-08-12T13:40:09;22.10;99.90
60353;DHT22;46196;52.970;6.954;2023-08-12T13:42:35;22.20;99.90
60353;DHT22;46196;52.970;6.954;2023-08-12T13:45:01;21.60;99.90
60353;DHT22;46196;52.970;6.954;2023-08-12T13:47:27;22.20;99.90
60353;DHT22;46196;52.970;6.954;2023-08-12T13:49:53;22.30;99.90
60353;DHT22;46196;52.970;6.954;2023-08-12T13:52:18;22.40;99.90
60353;DHT22;46196;52.970;6.954;2023-08-12T13:54:44;21.60;99.90
60353;DHT22;46196;52.970;6.954;2023-08-12T13:57:09;22.70;99.90
60353;DHT22;46196;52.970;6.954;2023-08-12T13:59:35;22.70;99.90
60353;DHT22;46196;52.970;6.954;2023-08-12T14:02:01;22.50;99.90
60353;DHT22;46196;52.970;6.954;2023-08-12T14:04:26;22.60;99.90
60353;DHT22;46196;52.970;6.954;2023-08-12T14:06:52;22.70;99.90
60353;DHT22;46196;52.970;6.954;2023-08-12T14:09:18;22.30;99.90
60353;DHT22;46196;52.970;6.954;2023-08-12T14:11:45;22.80;99.90
60353;DHT22;46196;52.970;6.954;2023-08-12T14:14:11;26.00;99.90
60353;DHT22;46196;52.970;6.954;2023-08-12T14:16:37;23.40;99.90
60353;DHT22;46196;52.970;6.954;2023-08-12T14:19:02;22.00;99.90
60353;DHT22;46196;52.970;6.954;2023-08-12T14:21:28;22.50;99.90
60353;DHT22;46196;52.970;6.954;2023-08-12T14:23:54;22.90;99.90
60353;DHT22;46196;52.970;6.954;2023-08-12T14:26:20;23.90;99.90
60353;DHT22;46196;52.970;6.954;2023-08-12T14:28:45;23.00;99.90
60353;DHT22;46196;52.970;6.954;2023-08-12T14:31:11;23.10;99.90
60353;DHT22;46196;52.970;6.954;2023-08-12T14:33:37;23.20;99.90
60353;DHT22;46196;52.970;6.954;2023-08-12T14:36:04;23.20;99.90
60353;DHT22;46196;52.970;6.954;2023-08-12T14:38:30;23.10;99.90
60353;DHT22;46196;52.970;6.954;2023-08-12T14:40:55;23.40;99.90
60353;DHT22;46196;52.970;6.954;2023-08-12T14:43:21;23.50;99.90
60353;DHT22;46196;52.970;6.954;2023-08-12T14:45:47;23.10;99.90
60353;DHT22;46196;52.970;6.954;2023-08-12T14:48:12;23.70;99.90
60353;DHT22;46196;52.970;6.954;2023-08-12T14:50:40;23.70;99.90
60353;DHT22;46196;52.970;6.954;2023-08-12T14:53:07;23.70;99.90
60353;DHT22;46196;52.970;6.954;2023-08-12T14:55:33;23.80;99.90
60353;DHT22;46196;52.970;6.954;2023-08-12T14:57:59;23.90;99.90
60353;DHT22;46196;52.970;6.954;2023-08-12T15:00:24;23.90;99.90
60353;DHT22;46196;52.970;6.954;2023-08-12T15:02:50;24.00;99.90
60353;DHT22;46196;52.970;6.954;2023-08-12T15:05:17;24.20;99.90
60353;DHT22;46196;52.970;6.954;2023-08-12T15:07:43;24.30;99.90
60353;DHT22;46196;52.970;6.954;2023-08-12T15:10:09;24.20;99.90
60353;DHT22;46196;52.970;6.954;2023-08-12T15:12:35;24.20;99.90
60353;DHT22;46196;52.970;6.954;2023-08-12T15:15:01;24.30;99.90
60353;DHT22;46196;52.970;6.954;2023-08-12T15:17:27;23.90;99.90
60353;DHT22;46196;52.970;6.954;2023-08-12T15:19:52;24.30;99.90
60353;DHT22;46196;52.970;6.954;2023-08-12T15:22:18;24.40;99.90
60353;DHT22;46196;52.970;6.954;2023-08-12T15:24:44;24.60;99.90
60353;DHT22;46196;52.970;6.954;2023-08-12T15:27:10;24.30;99.90
60353;DHT22;46196;52.970;6.954;2023-08-12T15:29:36;24.40;99.90
60353;DHT22;46196;52.970;6.954;2023-08-12T15:32:01;24.30;99.90
60353;DHT22;46196;52.970;6.954;2023-08-12T15:34:29;24.40;99.90
60353;DHT22;46196;52.970;6.954;2023-08-12T15:36:55;24.40;99.90
60353;DHT22;46196;52.970;6.954;2023-08-12T15:39:21;24.40;99.90
60353;DHT22;46196;52.970;6.954;2023-08-12T15:41:47;24.40;99.90
60353;DHT22;46196;52.970;6.954;2023-08-12T15:44:13;25.20;99.90
60353;DHT22;46196;52.970;6.954;2023-08-12T15:46:39;24.00;99.90
60353;DHT22;46196;52.970;6.954;2023-08-12T15:49:05;24.30;99.90
60353;DHT22;46196;52.970;6.954;2023-08-12T15:51:40;24.30;99.90
60353;DHT22;46196;52.970;6.954;2023-08-12T15:54:06;22.90;99.90
60353;DHT22;46196;52.970;6.954;2023-08-12T15:56:33;24.20;99.90
60353;DHT22;46196;52.970;6.954;2023-08-12T15:59:05;24.80;99.90
60353;DHT22;46196;52.970;6.954;2023-08-12T16:01:31;25.30;99.90